createdAt,value
2018-11-20T00:03:01.942Z,9.90
2018-11-20T00:05:54.280Z,9.57
2018-11-20T00:12:31.533Z,9.40
2018-11-20T00:15:23.348Z,11.07
2018-11-20T00:18:19.018Z,9.87
2018-11-20T00:21:09.185Z,11.53
2018-11-20T00:24:22.108Z,10.07
2018-11-20T00:32:14.885Z,10.03
2018-11-20T00:45:44.892Z,11.13
2018-11-20T00:52:44.349Z,11.90
2018-11-20T00:55:47.330Z,13.03
2018-11-20T01:05:08.829Z,12.90
2018-11-20T01:10:54.528Z,15.10
2018-11-20T01:26:27.030Z,13.20
2018-11-20T01:34:26.387Z,15.10
2018-11-20T01:37:25.980Z,14.17
2018-11-20T01:40:13.134Z,15.60
2018-11-20T01:42:56.082Z,14.13
2018-11-20T01:50:30.711Z,16.80
2018-11-20T01:53:52.525Z,14.57
2018-11-20T01:56:40.125Z,19.07
2018-11-20T01:59:23.913Z,17.87
2018-11-20T02:02:21.448Z,18.30
2018-11-20T02:05:18.090Z,18.33
2018-11-20T02:12:18.299Z,15.37
2018-11-20T02:15:58.195Z,17.10
2018-11-20T02:23:01.348Z,18.00
2018-11-20T02:25:58.166Z,19.82
2018-11-20T02:30:51.628Z,20.70
2018-11-20T02:37:53.271Z,17.97
2018-11-20T02:40:46.586Z,19.70
2018-11-20T02:46:25.194Z,18.50
2018-11-20T02:49:17.030Z,16.13
2018-11-20T02:53:06.636Z,17.77
2018-11-20T02:59:17.343Z,17.53
2018-11-20T03:02:36.739Z,19.30
2018-11-20T03:05:25.555Z,18.30
2018-11-20T03:08:15.757Z,17.93
2018-11-20T03:11:13.813Z,15.93
2018-11-20T03:16:09.782Z,18.00
2018-11-20T03:18:59.229Z,17.57
2018-11-20T03:21:43.084Z,20.23
2018-11-20T03:25:38.433Z,19.17
2018-11-20T03:35:27.531Z,17.83
2018-11-20T03:38:19.183Z,17.57
2018-11-20T03:41:15.422Z,18.43
2018-11-20T03:44:03.713Z,16.10
2018-11-20T03:48:50.111Z,18.27
2018-11-20T03:55:52.621Z,17.60
2018-11-20T03:59:01.339Z,18.83
2018-11-20T04:02:07.873Z,18.67
2018-11-20T04:04:52.967Z,20.92
2018-11-20T04:07:45.153Z,18.50
2018-11-20T04:10:35.737Z,18.30
2018-11-20T04:14:04.412Z,18.93
2018-11-20T04:16:46.695Z,18.53
2018-11-20T04:20:21.734Z,17.27
2018-11-20T04:25:09.084Z,18.00
2018-11-20T04:29:56.892Z,18.03
2018-11-20T04:33:08.905Z,18.03
2018-11-20T04:36:09.072Z,19.13
2018-11-20T04:38:54.357Z,18.00
2018-11-20T04:43:22.926Z,17.80
2018-11-20T04:46:13.938Z,16.93
2018-11-20T04:49:02.365Z,22.17
2018-11-20T04:53:11.227Z,19.90
2018-11-20T04:55:58.984Z,18.10
2018-11-20T04:58:52.008Z,17.17
2018-11-20T05:01:41.228Z,19.27
2018-11-20T05:04:55.315Z,18.07
2018-11-20T05:09:40.892Z,18.20
2018-11-20T05:16:43.165Z,18.30
2018-11-20T05:19:44.599Z,17.10
2018-11-20T05:26:58.723Z,17.10
2018-11-20T05:29:54.539Z,17.40
2018-11-20T05:34:42.664Z,19.80
2018-11-20T05:39:25.910Z,21.60
2018-11-20T05:42:09.548Z,16.77
2018-11-20T05:45:00.343Z,19.20
2018-11-20T05:51:29.562Z,16.53
2018-11-20T05:54:13.700Z,17.23
2018-11-20T05:57:10.969Z,19.50
2018-11-20T06:02:03.948Z,18.90
2018-11-20T06:05:59.046Z,18.73
2018-11-20T06:09:12.258Z,17.23
2018-11-20T06:12:15.128Z,19.17
2018-11-20T06:16:21.284Z,19.43
2018-11-20T06:19:14.222Z,21.25
2018-11-20T06:27:40.503Z,18.80
2018-11-20T06:30:24.898Z,21.53
2018-11-20T06:33:13.189Z,19.10
2018-11-20T06:53:57.258Z,21.48
2018-11-20T07:09:13.207Z,20.03
2018-11-20T07:12:02.472Z,17.80
2018-11-20T07:26:09.197Z,19.20
2018-11-20T07:30:20.601Z,18.25
2018-11-20T07:33:08.751Z,21.00
2018-11-20T07:35:58.449Z,21.23
2018-11-20T07:39:06.780Z,21.63
2018-11-20T07:44:09.841Z,19.27
2018-11-20T07:47:42.982Z,21.80
2018-11-20T08:05:29.034Z,17.43
2018-11-20T08:08:24.395Z,21.73
2018-11-20T08:14:24.668Z,22.02
2018-11-20T08:20:31.885Z,22.73
2018-11-20T08:28:23.248Z,20.20
2018-11-20T08:37:42.578Z,24.72
2018-11-20T08:44:03.989Z,22.90
2018-11-20T09:28:27.108Z,22.07
2018-11-20T09:38:01.956Z,19.70
2018-11-20T09:40:59.382Z,18.60
2018-11-20T10:04:43.251Z,25.70
2018-11-20T10:14:32.841Z,22.03
